Horrel Hill, South Carolina
Current Conditions -  °F | °C
As of 5:58 PM on Saturday 20 Dec 2014 (Local Time) from KMMT Reporting Station
Overcast Overcast  
Wind Chill: 43°   Ceiling: 1700
Heat Index: 46°   Visibility: 10mi
Dew Point: 42°   Wind: 6mph
Humidity: 84%   Direction: 50°NE
Pressure: 30.22"   Gusts: NA
Location:  33.8814°N, 80.8478°W
Report Text: KMMT 202258Z AUTO 05005KT 10SM OVC017 08/05 A3022 RMK AO2 SLP237 T00790054
Loading
Personal Weather Stations






























Interactive Weather Map New forecast layout! Learn more

10-Day Weather Forecast

Advertisements
Track Severe Weather on mobile